Overview Statistics Trail Chart Weather Telemetry Raw packets
 

This is the latest recevied weather packets stored in our database for station/object W5CDN. If no packets are shown the sender has not sent any weather packets the latest 10 day(s).

<< 67 68 69 70 71 72 73 >>
Time Temp. Humidity Pressure Rain* Wind** Luminosity Snow
1787934841 33.33° C 54% 1017 hPa 0 mm - - -
1787934536 33.33° C 53% 1016.9 hPa 0 mm - - -
1787934236 33.33° C 56% 1017.3 hPa 0 mm - - -
1787933936 33.89° C 55% 1017 hPa 0 mm - - -
1787933636 32.78° C 57% 1017.1 hPa 0 mm - - -
1787933336 32.22° C 60% 1017.2 hPa 0 mm - - -
1787933036 32.78° C 60% 1017.1 hPa 0 mm - - -
1787932736 32.78° C 59% 1017.3 hPa 0 mm - - -
1787932436 32.22° C 61% 1017.2 hPa 0 mm - - -
1787932136 32.78° C 62% 1017.4 hPa 0 mm - - -
1787931836 32.78° C 60% 1017.2 hPa 0 mm - - -
1787931536 31.67° C 63% 1017.2 hPa 0 mm - - -
1787931236 32.22° C 62% 1017.2 hPa 0 mm - - -
1787930936 31.11° C 67% 1017 hPa 0 mm - - -
1787930636 30.56° C 71% 1017.3 hPa 0 mm - - -
1787930336 31.67° C 67% 1017 hPa 0 mm - - -
1787930036 30.56° C 70% 1017 hPa 0 mm - - -
1787929736 30° C 71% 1017 hPa 0 mm - - -
1787929436 30.56° C 71% 1017 hPa 0 mm - - -
1787929136 30° C 73% 1016.7 hPa 0 mm - - -
1787928836 30.56° C 73% 1016.9 hPa 0 mm - - -
1787928536 30° C 75% 1016.8 hPa 0 mm - - -
1787928236 30° C 76% 1016.7 hPa 0 mm - - -
1787927936 29.44° C 76% 1016.8 hPa 0 mm - - -
1787927636 28.89° C 78% 1016.8 hPa 0 mm - - -

* Rain latest hour (hover to see other rain measurements)
** Current wind speed in m/s (hover to see current wind gust speed)